createdAt,value
2019-03-17T00:00:06.541Z,99504.22
2019-03-17T00:02:36.977Z,99505.73
2019-03-17T00:05:04.730Z,99503.72
2019-03-17T00:07:32.806Z,99507.95
2019-03-17T00:10:00.770Z,99509.84
2019-03-17T00:12:31.368Z,99505.55
2019-03-17T00:15:05.031Z,99511.47
2019-03-17T00:17:28.171Z,99510.92
2019-03-17T00:19:56.228Z,99505.84
2019-03-17T00:22:24.299Z,99505.84
2019-03-17T00:24:54.622Z,99502.88
2019-03-17T00:27:22.591Z,99507.95
2019-03-17T00:29:50.460Z,99513.72
2019-03-17T00:32:18.324Z,99519.49
2019-03-17T00:34:46.187Z,99519.95
2019-03-17T00:37:14.067Z,99519.09
2019-03-17T00:39:41.920Z,99526.69
2019-03-17T00:42:09.788Z,99522.06
2019-03-17T00:44:37.550Z,99530.57
2019-03-17T00:47:05.312Z,99530.14
2019-03-17T00:49:33.178Z,99523.52
2019-03-17T00:52:01.048Z,99541.07
2019-03-17T00:54:29.432Z,99540.56
2019-03-17T00:56:57.396Z,99548.92
2019-03-17T00:59:25.265Z,99547.84
2019-03-17T01:01:53.640Z,99557.44
2019-03-17T01:04:21.609Z,99556.75
2019-03-17T01:06:49.477Z,99563.03
2019-03-17T01:09:17.542Z,99563.92
2019-03-17T01:11:45.312Z,99570.03
2019-03-17T01:14:13.169Z,99574.57
2019-03-17T01:16:40.938Z,99571.83
2019-03-17T01:19:08.801Z,99568.78
2019-03-17T01:21:36.670Z,99580.73
2019-03-17T01:24:04.434Z,99583.82
2019-03-17T01:26:32.195Z,99585.36
2019-03-17T01:28:59.956Z,99585.11
2019-03-17T01:31:27.724Z,99584.17
2019-03-17T01:33:55.487Z,99588.00
2019-03-17T01:36:23.350Z,99590.22
2019-03-17T01:38:51.321Z,99590.50
2019-03-17T01:41:19.088Z,99595.52
2019-03-17T01:43:46.949Z,99597.81
2019-03-17T01:46:14.712Z,99600.05
2019-03-17T01:48:42.477Z,99613.02
2019-03-17T01:51:10.348Z,99612.07
2019-03-17T01:53:39.034Z,99609.44
2019-03-17T01:56:06.689Z,99610.81
2019-03-17T01:58:34.558Z,99608.73
2019-03-17T02:01:02.941Z,99607.14
2019-03-17T02:03:30.901Z,99615.19
2019-03-17T02:05:58.664Z,99614.89
2019-03-17T02:08:26.432Z,99613.23
2019-03-17T02:10:54.192Z,99617.93
2019-03-17T02:13:22.264Z,99614.47
2019-03-17T02:15:50.030Z,99623.95
2019-03-17T02:18:17.794Z,99627.01
2019-03-17T02:20:45.564Z,99630.06
2019-03-17T02:23:13.317Z,99630.58
2019-03-17T02:25:41.083Z,99637.05
2019-03-17T02:28:08.849Z,99644.27
2019-03-17T02:30:36.610Z,99644.00
2019-03-17T02:33:04.376Z,99644.34
2019-03-17T02:35:39.301Z,99650.91
2019-03-17T02:38:02.160Z,99651.00
2019-03-17T02:40:29.917Z,99660.99
2019-03-17T02:42:57.795Z,99667.58
2019-03-17T02:45:25.549Z,99667.39
2019-03-17T02:47:53.319Z,99667.25
2019-03-17T02:50:21.078Z,99671.27
2019-03-17T02:52:49.456Z,99683.80
2019-03-17T02:55:17.123Z,99684.59
2019-03-17T02:57:44.891Z,99691.70
2019-03-17T03:00:12.643Z,99693.28
2019-03-17T03:02:40.942Z,99701.35
2019-03-17T03:05:09.712Z,99703.92
2019-03-17T03:07:37.375Z,99707.38
2019-03-17T03:10:05.159Z,99713.71
2019-03-17T03:12:32.894Z,99717.30
2019-03-17T03:15:00.658Z,99719.84
2019-03-17T03:17:28.427Z,99720.67
2019-03-17T03:19:56.189Z,99726.16
2019-03-17T03:22:23.844Z,99728.65
2019-03-17T03:24:51.620Z,99731.05
2019-03-17T03:27:20.303Z,99736.51
2019-03-17T03:29:48.064Z,99737.77
2019-03-17T03:32:15.973Z,99741.69
2019-03-17T03:34:44.024Z,99742.75
2019-03-17T03:37:11.970Z,99751.25
2019-03-17T03:39:39.846Z,99746.56
2019-03-17T03:42:07.599Z,99752.86
2019-03-17T03:44:35.358Z,99754.24
2019-03-17T03:47:03.147Z,99760.31
2019-03-17T03:49:30.889Z,99762.02
2019-03-17T03:51:59.061Z,99762.74
2019-03-17T03:54:27.539Z,99769.70
2019-03-17T03:56:55.713Z,99779.06
2019-03-17T03:59:23.479Z,99778.22
2019-03-17T04:01:51.962Z,99774.33
2019-03-17T04:04:19.936Z,99785.36
2019-03-17T04:06:47.798Z,99787.84
2019-03-17T04:09:15.565Z,99792.34
2019-03-17T04:11:43.426Z,99799.05
2019-03-17T04:14:11.192Z,99799.56
2019-03-17T04:16:38.962Z,99804.14
2019-03-17T04:19:06.724Z,99807.89
2019-03-17T04:21:34.486Z,99813.28
2019-03-17T04:24:02.238Z,99816.30
2019-03-17T04:26:30.218Z,99816.92
2019-03-17T04:28:58.079Z,99823.19
2019-03-17T04:31:25.848Z,99823.65
2019-03-17T04:33:53.609Z,99825.90
2019-03-17T04:36:21.568Z,99835.38
2019-03-17T04:38:50.154Z,99842.63
2019-03-17T04:41:18.127Z,99846.27
2019-03-17T04:43:45.991Z,99847.64
2019-03-17T04:46:13.855Z,99850.21
2019-03-17T04:48:41.865Z,99849.44
2019-03-17T04:51:09.896Z,99855.63
2019-03-17T04:53:38.374Z,99854.41
2019-03-17T04:56:06.141Z,99856.53
2019-03-17T04:58:34.209Z,99860.83
2019-03-17T05:01:02.591Z,99866.58
2019-03-17T05:03:30.452Z,99872.67
2019-03-17T05:05:58.317Z,99872.05
2019-03-17T05:08:26.292Z,99876.75
2019-03-17T05:10:54.664Z,99884.34
2019-03-17T05:13:22.634Z,99892.05
2019-03-17T05:15:50.605Z,99899.36
2019-03-17T05:18:18.571Z,99902.52
2019-03-17T05:20:46.542Z,99909.64
2019-03-17T05:23:14.524Z,99910.70
2019-03-17T05:25:42.581Z,99925.86
2019-03-17T05:28:10.551Z,99926.55
2019-03-17T05:30:38.517Z,99935.57
2019-03-17T05:33:06.486Z,99936.52
2019-03-17T05:35:34.455Z,99937.45
2019-03-17T05:38:02.425Z,99939.74
2019-03-17T05:40:30.497Z,99940.48
2019-03-17T05:42:58.462Z,99947.00
2019-03-17T05:45:26.532Z,99953.63
2019-03-17T05:47:54.408Z,99954.09
2019-03-17T05:50:22.369Z,99956.78
2019-03-17T05:52:51.460Z,99958.01
2019-03-17T05:55:19.330Z,99962.73
2019-03-17T05:57:47.397Z,99964.20
2019-03-17T06:00:17.008Z,99968.71
2019-03-17T06:02:45.385Z,99978.91
2019-03-17T06:05:13.043Z,99980.55
2019-03-17T06:07:40.744Z,99986.88
2019-03-17T06:10:08.678Z,99991.19
2019-03-17T06:12:36.643Z,99991.22
2019-03-17T06:15:09.841Z,99994.30
2019-03-17T06:17:37.407Z,99993.44
2019-03-17T06:20:08.128Z,100001.17
2019-03-17T06:22:35.785Z,100002.13
2019-03-17T06:25:07.752Z,100004.88
2019-03-17T06:27:35.517Z,100008.86
2019-03-17T06:30:13.323Z,100012.04
2019-03-17T06:32:41.289Z,100010.73
2019-03-17T06:35:09.360Z,100015.53
2019-03-17T06:37:37.430Z,100015.53
2019-03-17T06:40:11.003Z,100018.05
2019-03-17T06:42:38.486Z,100011.53
2019-03-17T06:45:08.188Z,100025.52
2019-03-17T06:47:35.963Z,100025.52
2019-03-17T06:50:07.911Z,100035.77
2019-03-17T06:52:35.886Z,100035.77
2019-03-17T06:55:07.292Z,100038.73
2019-03-17T06:57:34.995Z,100038.73
2019-03-17T07:00:05.629Z,100045.25
2019-03-17T07:02:33.592Z,100043.77
2019-03-17T07:05:01.464Z,100043.77
2019-03-17T07:07:29.533Z,100049.23
2019-03-17T07:09:57.604Z,100043.61
2019-03-17T07:12:25.671Z,100054.28
2019-03-17T07:14:53.645Z,100061.05
2019-03-17T07:17:21.620Z,100058.27
2019-03-17T07:19:49.580Z,100068.00
2019-03-17T07:22:17.649Z,100069.25
2019-03-17T07:24:45.617Z,100072.12
2019-03-17T07:27:14.610Z,100073.91
2019-03-17T07:29:42.579Z,100073.91
2019-03-17T07:32:10.503Z,100079.02
2019-03-17T07:34:38.208Z,100085.84
2019-03-17T07:37:06.182Z,100085.92
2019-03-17T07:39:34.150Z,100079.84
2019-03-17T07:42:01.913Z,100087.30
2019-03-17T07:44:29.677Z,100084.12
2019-03-17T07:46:57.536Z,100085.61
2019-03-17T07:49:25.413Z,100092.62
2019-03-17T07:51:53.473Z,100082.94
2019-03-17T07:54:21.853Z,100086.98
2019-03-17T07:56:49.414Z,100095.62
2019-03-17T07:59:17.899Z,100094.58
2019-03-17T08:01:46.478Z,100096.69
2019-03-17T08:04:14.248Z,100109.28
2019-03-17T08:06:42.004Z,100107.03
2019-03-17T08:09:09.779Z,100108.52
2019-03-17T08:11:37.738Z,100113.24
2019-03-17T08:14:05.703Z,100117.05
2019-03-17T08:16:33.475Z,100116.08
2019-03-17T08:19:02.671Z,100122.22
2019-03-17T08:21:30.842Z,100134.09
2019-03-17T08:23:58.885Z,100126.34
2019-03-17T08:26:26.676Z,100132.60
2019-03-17T08:28:54.436Z,100132.60
2019-03-17T08:31:22.207Z,100134.20
2019-03-17T08:33:50.175Z,100142.28
2019-03-17T08:36:18.565Z,100145.08
2019-03-17T08:38:46.631Z,100153.25
2019-03-17T08:41:14.488Z,100142.89
2019-03-17T08:43:53.834Z,100149.11
2019-03-17T08:46:12.373Z,100150.58
2019-03-17T08:48:40.237Z,100156.07
2019-03-17T08:51:07.998Z,100168.12
2019-03-17T08:53:36.180Z,100167.45
2019-03-17T08:56:04.063Z,100177.28
2019-03-17T08:58:31.857Z,100173.55
2019-03-17T09:01:01.310Z,100170.72
2019-03-17T09:03:29.174Z,100178.08
2019-03-17T09:05:56.936Z,100174.72
2019-03-17T09:08:34.490Z,100178.77
2019-03-17T09:10:55.530Z,100180.80
2019-03-17T09:13:23.509Z,100183.95
2019-03-17T09:15:51.488Z,100188.92
2019-03-17T09:18:19.439Z,100190.47
2019-03-17T09:20:47.217Z,100198.50
2019-03-17T09:23:15.073Z,100197.65
2019-03-17T09:25:42.939Z,100200.92
2019-03-17T09:28:10.599Z,100201.62
2019-03-17T09:30:38.359Z,100210.20
2019-03-17T09:33:06.328Z,100209.81
2019-03-17T09:35:34.505Z,100219.19
2019-03-17T09:38:02.469Z,100217.05
2019-03-17T09:40:30.544Z,100215.96
2019-03-17T09:42:58.515Z,100223.19
2019-03-17T09:45:26.487Z,100231.20
2019-03-17T09:47:54.447Z,100229.06
2019-03-17T09:50:23.135Z,100229.62
2019-03-17T09:52:51.714Z,100230.48
2019-03-17T09:55:19.686Z,100234.95
2019-03-17T09:57:47.449Z,100237.02
2019-03-17T10:00:18.094Z,100236.23
2019-03-17T10:02:46.460Z,100247.11
2019-03-17T10:05:14.224Z,100241.72
2019-03-17T10:07:42.197Z,100239.56
2019-03-17T10:10:15.637Z,100243.20
2019-03-17T10:12:43.560Z,100243.57
2019-03-17T10:15:16.641Z,100247.55
2019-03-17T10:17:44.103Z,100251.54
2019-03-17T10:20:17.710Z,100253.52
2019-03-17T10:22:45.360Z,100259.16
2019-03-17T10:25:13.945Z,100265.00
2019-03-17T10:27:41.916Z,100269.72
2019-03-17T10:30:18.381Z,100264.77
2019-03-17T10:32:46.348Z,100264.73
2019-03-17T10:35:14.316Z,100263.50
2019-03-17T10:37:42.903Z,100267.00
2019-03-17T10:40:13.845Z,100275.92
2019-03-17T10:42:41.608Z,100301.12
2019-03-17T10:45:10.700Z,100295.30
2019-03-17T10:47:38.464Z,100289.88
2019-03-17T10:50:20.257Z,100289.64
2019-03-17T10:52:48.427Z,100287.35
2019-03-17T10:55:17.014Z,100292.19
2019-03-17T10:57:44.778Z,100289.06
2019-03-17T11:00:19.692Z,100277.55
2019-03-17T11:02:47.980Z,100283.89
2019-03-17T11:05:16.880Z,100284.10
2019-03-17T11:07:44.739Z,100283.84
2019-03-17T11:10:13.012Z,100291.09
2019-03-17T11:12:40.676Z,100294.42
2019-03-17T11:15:19.909Z,100297.62
2019-03-17T11:17:48.387Z,100305.70
2019-03-17T11:20:16.147Z,100297.78
2019-03-17T11:22:43.825Z,100308.85
2019-03-17T11:25:15.466Z,100320.03
2019-03-17T11:27:43.022Z,100334.48
2019-03-17T11:30:13.241Z,100331.34
2019-03-17T11:32:41.115Z,100327.53
2019-03-17T11:35:09.286Z,100328.92
2019-03-17T11:37:37.252Z,100340.06
2019-03-17T11:40:11.676Z,100334.63
2019-03-17T11:42:39.436Z,100333.17
2019-03-17T11:45:10.272Z,100344.50
2019-03-17T11:47:37.930Z,100358.22
2019-03-17T11:50:08.571Z,100358.83
2019-03-17T11:52:36.331Z,100358.83
2019-03-17T11:55:06.982Z,100362.76
2019-03-17T11:57:34.622Z,100367.59
2019-03-17T12:00:05.773Z,100361.64
2019-03-17T12:02:33.636Z,100362.73
2019-03-17T12:05:01.188Z,100364.82
2019-03-17T12:07:28.956Z,100369.36
2019-03-17T12:09:56.715Z,100372.41
2019-03-17T12:12:24.481Z,100377.37
2019-03-17T12:14:52.242Z,100400.71
2019-03-17T12:17:19.907Z,100395.04
2019-03-17T12:19:47.672Z,100396.73
2019-03-17T12:22:15.437Z,100404.97
2019-03-17T12:24:43.515Z,100418.17
2019-03-17T12:27:11.884Z,100410.13
2019-03-17T12:29:39.956Z,100411.20
2019-03-17T12:32:07.619Z,100411.33
2019-03-17T12:34:35.481Z,100407.89
2019-03-17T12:37:03.345Z,100412.69
2019-03-17T12:39:31.128Z,100411.36
2019-03-17T12:41:58.870Z,100411.23
2019-03-17T12:44:26.638Z,100411.80
2019-03-17T12:46:54.604Z,100413.33
2019-03-17T12:49:22.987Z,100417.15
2019-03-17T12:51:50.848Z,100419.00
2019-03-17T12:54:19.123Z,100418.44
2019-03-17T12:56:47.708Z,100410.03
2019-03-17T12:59:15.472Z,100420.42
2019-03-17T13:01:43.646Z,100441.91
2019-03-17T13:04:12.130Z,100441.91
2019-03-17T13:06:39.789Z,100438.83
2019-03-17T13:09:07.451Z,100438.83
2019-03-17T13:11:35.210Z,100438.95
2019-03-17T13:14:03.082Z,100452.03
2019-03-17T13:16:30.948Z,100443.45
2019-03-17T13:18:58.813Z,100443.09
2019-03-17T13:21:26.579Z,100457.84
2019-03-17T13:23:54.346Z,100463.51
2019-03-17T13:26:22.103Z,100449.64
2019-03-17T13:28:50.788Z,100455.23
2019-03-17T13:31:20.591Z,100457.75
2019-03-17T13:33:47.961Z,100460.98
2019-03-17T13:36:15.721Z,100454.01
2019-03-17T13:38:43.597Z,100459.95
2019-03-17T13:41:11.453Z,100454.61
2019-03-17T13:43:39.212Z,100466.06
2019-03-17T13:46:06.988Z,100466.15
2019-03-17T13:48:34.749Z,100470.16
2019-03-17T13:51:02.615Z,100471.95
2019-03-17T13:53:30.888Z,100471.27
2019-03-17T13:55:58.453Z,100481.05
2019-03-17T13:58:26.207Z,100478.38
2019-03-17T14:00:54.991Z,100478.38
2019-03-17T14:03:22.651Z,100482.02
2019-03-17T14:05:50.420Z,100493.83
2019-03-17T14:08:18.595Z,100490.42
2019-03-17T14:10:46.455Z,100495.77
2019-03-17T14:13:14.324Z,100517.73
2019-03-17T14:15:42.088Z,100514.97
2019-03-17T14:18:09.861Z,100516.95
2019-03-17T14:20:38.536Z,100517.91
2019-03-17T14:23:06.306Z,100523.84
2019-03-17T14:25:36.115Z,100524.57
2019-03-17T14:28:03.669Z,100528.84
2019-03-17T14:30:31.435Z,100533.16
2019-03-17T14:33:00.627Z,100525.37
2019-03-17T14:35:29.425Z,100541.61
2019-03-17T14:37:57.334Z,100541.61
2019-03-17T14:40:25.052Z,100548.80
2019-03-17T14:42:55.205Z,100555.84
2019-03-17T14:45:22.325Z,100555.84
2019-03-17T14:47:51.109Z,100556.56
2019-03-17T14:50:20.312Z,100556.56
2019-03-17T14:52:49.515Z,100560.55
2019-03-17T14:55:17.473Z,100567.31
2019-03-17T14:57:45.245Z,100570.44
2019-03-17T15:00:18.324Z,100573.08
2019-03-17T15:02:46.702Z,100574.69
2019-03-17T15:05:14.463Z,100583.38
2019-03-17T15:07:42.227Z,100583.20
2019-03-17T15:10:21.773Z,100585.80
2019-03-17T15:12:49.527Z,100591.88
2019-03-17T15:15:18.336Z,100592.16
2019-03-17T15:17:45.983Z,100600.06
2019-03-17T15:20:18.246Z,100604.97
2019-03-17T15:22:47.190Z,100605.88
2019-03-17T15:25:15.114Z,100610.97
2019-03-17T15:27:43.077Z,100617.29
2019-03-17T15:30:19.645Z,100625.20
2019-03-17T15:32:47.312Z,100625.20
2019-03-17T15:35:15.487Z,100628.02
2019-03-17T15:37:43.765Z,100636.76
2019-03-17T15:40:13.877Z,100646.23
2019-03-17T15:42:42.045Z,100638.66
2019-03-17T15:45:13.097Z,100653.92
2019-03-17T15:47:40.769Z,100682.95
2019-03-17T15:50:11.278Z,100648.11
2019-03-17T15:52:38.940Z,100652.64
2019-03-17T15:55:09.735Z,100652.64
2019-03-17T15:57:37.441Z,100659.64
2019-03-17T16:00:09.294Z,100668.47
2019-03-17T16:02:37.208Z,100675.02
2019-03-17T16:05:05.846Z,100674.56
2019-03-17T16:07:42.198Z,100670.58
2019-03-17T16:10:06.806Z,100680.86
2019-03-17T16:12:34.666Z,100679.26
2019-03-17T16:15:04.788Z,100683.91
2019-03-17T16:17:32.344Z,100689.44
2019-03-17T16:20:00.343Z,100689.44
2019-03-17T16:22:28.282Z,100695.34
2019-03-17T16:24:56.249Z,100702.28
2019-03-17T16:27:24.427Z,100702.28
2019-03-17T16:29:52.606Z,100708.55
2019-03-17T16:32:20.681Z,100711.70
2019-03-17T16:34:48.745Z,100725.29
2019-03-17T16:37:16.703Z,100720.87
2019-03-17T16:39:44.880Z,100725.98
2019-03-17T16:42:12.859Z,100725.98
2019-03-17T16:44:40.822Z,100732.94
2019-03-17T16:47:08.783Z,100736.38
2019-03-17T16:49:36.965Z,100741.53
2019-03-17T16:52:04.929Z,100742.56
2019-03-17T16:54:33.923Z,100747.16
2019-03-17T16:57:02.097Z,100751.59
2019-03-17T16:59:30.067Z,100757.97
2019-03-17T17:01:58.337Z,100757.91
2019-03-17T17:04:26.414Z,100764.67
2019-03-17T17:06:55.405Z,100768.83
2019-03-17T17:09:23.883Z,100766.77
2019-03-17T17:11:57.056Z,100771.66
2019-03-17T17:14:21.764Z,100776.09
2019-03-17T17:16:49.528Z,100771.86
2019-03-17T17:19:17.511Z,100779.60
2019-03-17T17:21:45.466Z,100775.87
2019-03-17T17:24:13.433Z,100785.12
2019-03-17T17:26:41.409Z,100787.15
2019-03-17T17:29:11.627Z,100788.30
2019-03-17T17:31:39.488Z,100795.95
2019-03-17T17:34:07.456Z,100800.69
2019-03-17T17:36:35.641Z,100800.33
2019-03-17T17:39:06.365Z,100801.18
2019-03-17T17:41:33.925Z,100804.65
2019-03-17T17:44:02.001Z,100803.00
2019-03-17T17:46:29.969Z,100804.87
2019-03-17T17:48:58.037Z,100809.52
2019-03-17T17:51:26.514Z,100806.57
2019-03-17T17:53:54.995Z,100807.69
2019-03-17T17:56:22.858Z,100810.16
2019-03-17T17:58:50.941Z,100803.34
2019-03-17T18:01:19.308Z,100808.33
2019-03-17T18:03:51.455Z,100814.94
2019-03-17T18:06:16.888Z,100806.11
2019-03-17T18:08:45.157Z,100811.55
2019-03-17T18:11:13.134Z,100814.63
2019-03-17T18:13:41.202Z,100817.63
2019-03-17T18:16:09.269Z,100815.23
2019-03-17T18:18:37.240Z,100822.17
2019-03-17T18:21:05.107Z,100827.52
2019-03-17T18:23:33.483Z,100831.44
2019-03-17T18:26:01.458Z,100834.59
2019-03-17T18:28:29.437Z,100841.69
2019-03-17T18:30:57.497Z,100840.37
2019-03-17T18:33:25.665Z,100845.12
2019-03-17T18:35:53.841Z,100850.41
2019-03-17T18:38:22.015Z,100851.28
2019-03-17T18:40:49.983Z,100852.21
2019-03-17T18:43:17.856Z,100857.02
2019-03-17T18:45:45.822Z,100860.03
2019-03-17T18:48:13.886Z,100860.48
2019-03-17T18:50:41.656Z,100861.02
2019-03-17T18:53:09.950Z,100861.08
2019-03-17T18:55:37.686Z,100860.18
2019-03-17T18:58:05.557Z,100867.69
2019-03-17T19:00:33.633Z,100867.27
2019-03-17T19:03:02.421Z,100876.00
2019-03-17T19:05:30.378Z,100877.77
2019-03-17T19:07:58.358Z,100882.13
2019-03-17T19:10:26.531Z,100879.52
2019-03-17T19:12:55.116Z,100879.53
2019-03-17T19:15:23.184Z,100873.91
2019-03-17T19:17:51.356Z,100883.09
2019-03-17T19:20:20.452Z,100881.31
2019-03-17T19:22:48.416Z,100883.98
2019-03-17T19:25:19.156Z,100875.66
2019-03-17T19:27:47.221Z,100877.86
2019-03-17T19:30:16.931Z,100870.84
2019-03-17T19:32:45.102Z,100880.49
2019-03-17T19:35:13.280Z,100879.61
2019-03-17T19:37:41.353Z,100880.93
2019-03-17T19:40:19.875Z,100882.23
2019-03-17T19:42:58.049Z,100879.62
2019-03-17T19:45:17.847Z,100878.75
2019-03-17T19:47:45.929Z,100881.37
2019-03-17T19:50:19.320Z,100876.53
2019-03-17T19:52:47.203Z,100874.36
2019-03-17T19:55:15.359Z,100869.53
2019-03-17T19:57:43.122Z,100878.25
2019-03-17T20:00:20.198Z,100874.78
2019-03-17T20:02:48.781Z,100876.08
2019-03-17T20:05:16.856Z,100880.04
2019-03-17T20:07:44.830Z,100889.23
2019-03-17T20:10:32.963Z,100887.91
2019-03-17T20:13:11.044Z,100893.62
2019-03-17T20:15:30.127Z,100889.67
2019-03-17T20:18:00.551Z,100893.60
2019-03-17T20:20:28.523Z,100901.03
2019-03-17T20:22:56.490Z,100897.53
2019-03-17T20:25:24.462Z,100894.85
2019-03-17T20:27:52.334Z,100900.58
2019-03-17T20:30:20.303Z,100906.70
2019-03-17T20:32:48.268Z,100907.59
2019-03-17T20:35:16.740Z,100905.38
2019-03-17T20:37:46.274Z,100910.09
2019-03-17T20:40:16.366Z,100905.73
2019-03-17T20:42:44.609Z,100903.15
2019-03-17T20:45:15.075Z,100897.04
2019-03-17T20:47:42.525Z,100903.17
2019-03-17T20:50:15.100Z,100904.44
2019-03-17T20:52:42.556Z,100907.06
2019-03-17T20:55:11.359Z,100912.77
2019-03-17T20:57:39.524Z,100911.88
2019-03-17T21:00:14.112Z,100916.70
2019-03-17T21:02:42.112Z,100914.00
2019-03-17T21:05:10.803Z,100917.06
2019-03-17T21:07:39.383Z,100930.09
2019-03-17T21:10:10.011Z,100922.66
2019-03-17T21:12:37.880Z,100925.79
2019-03-17T21:15:19.565Z,100921.73
2019-03-17T21:17:47.541Z,100924.72
2019-03-17T21:20:20.930Z,100932.59
2019-03-17T21:22:48.898Z,100927.38
2019-03-17T21:25:24.242Z,100925.16
2019-03-17T21:27:52.422Z,100932.14
2019-03-17T21:30:28.060Z,100933.91
2019-03-17T21:32:55.831Z,100936.58
2019-03-17T21:35:23.899Z,100937.92
2019-03-17T21:37:51.875Z,100932.59
2019-03-17T21:40:20.760Z,100938.72
2019-03-17T21:42:49.032Z,100941.33
2019-03-17T21:45:17.012Z,100943.98
2019-03-17T21:47:45.068Z,100946.16
2019-03-17T21:50:20.006Z,100949.95
2019-03-17T21:52:48.204Z,100954.30
2019-03-17T21:55:16.467Z,100953.51
2019-03-17T21:57:44.319Z,100949.14
2019-03-17T22:00:16.589Z,100958.75
2019-03-17T22:02:44.867Z,100961.35
2019-03-17T22:05:12.935Z,100956.16
2019-03-17T22:07:49.646Z,100959.30
2019-03-17T22:10:18.191Z,100968.81
2019-03-17T22:12:45.953Z,100968.20
2019-03-17T22:15:14.742Z,100967.38
2019-03-17T22:17:42.302Z,100967.86
2019-03-17T22:20:11.600Z,100980.12
2019-03-17T22:22:39.157Z,100973.59
2019-03-17T22:25:08.460Z,100977.92
2019-03-17T22:27:36.224Z,100978.80
2019-03-17T22:30:13.305Z,100977.50
2019-03-17T22:32:41.171Z,100985.13
2019-03-17T22:35:09.238Z,100989.09
2019-03-17T22:37:37.308Z,100993.88
2019-03-17T22:40:13.587Z,100995.54
2019-03-17T22:42:41.748Z,101004.67
2019-03-17T22:45:14.221Z,101006.81
2019-03-17T22:47:42.005Z,101009.37
2019-03-17T22:50:11.388Z,101007.80
2019-03-17T22:52:38.944Z,101008.14
2019-03-17T22:55:08.716Z,101016.47
2019-03-17T22:57:43.897Z,101017.14
2019-03-17T23:00:35.926Z,101015.27
2019-03-17T23:03:05.438Z,101019.62
2019-03-17T23:05:32.993Z,101020.05
2019-03-17T23:08:00.978Z,101025.33
2019-03-17T23:10:29.835Z,101030.92
2019-03-17T23:12:57.719Z,101033.64
2019-03-17T23:15:25.586Z,101037.06
2019-03-17T23:17:53.652Z,101037.06
2019-03-17T23:20:21.730Z,101033.70
2019-03-17T23:22:49.793Z,101042.95
2019-03-17T23:25:17.678Z,101032.77
2019-03-17T23:27:45.632Z,101041.53
2019-03-17T23:30:14.837Z,101034.39
2019-03-17T23:32:42.392Z,101037.94
2019-03-17T23:35:10.464Z,101038.05
2019-03-17T23:37:38.430Z,101036.19
2019-03-17T23:40:09.795Z,101033.97
2019-03-17T23:42:37.435Z,101034.56
2019-03-17T23:45:07.654Z,101033.20
2019-03-17T23:47:35.113Z,101037.94
2019-03-17T23:50:06.056Z,101037.48
2019-03-17T23:52:34.944Z,101050.99
2019-03-17T23:55:05.646Z,101053.27
2019-03-17T23:57:33.612Z,101057.22
